sensor_id;sensor_type;location;lat;lon;timestamp;pressure;altitude;pressure_sealevel;temperature;humidity
39405;BME280;25121;51.090;17.038;2023-02-12T00:01:12;101519.19;;;6.67;78.07
39405;BME280;25121;51.090;17.038;2023-02-12T00:02:37;101506.06;;;6.64;77.92
39405;BME280;25121;51.090;17.038;2023-02-12T00:04:05;101519.31;;;6.66;78.07
39405;BME280;25121;51.090;17.038;2023-02-12T00:05:47;101520.19;;;6.66;78.04
39405;BME280;25121;51.090;17.038;2023-02-12T00:07:17;101514.09;;;6.64;77.94
39405;BME280;25121;51.090;17.038;2023-02-12T00:08:43;101520.03;;;6.68;78.09
39405;BME280;25121;51.090;17.038;2023-02-12T00:10:16;101510.44;;;6.65;77.99
39405;BME280;25121;51.090;17.038;2023-02-12T00:11:39;101508.84;;;6.63;77.96
39405;BME280;25121;51.090;17.038;2023-02-12T00:13:05;101520.03;;;6.68;77.83
39405;BME280;25121;51.090;17.038;2023-02-12T00:14:31;101519.31;;;6.66;78.12
39405;BME280;25121;51.090;17.038;2023-02-12T00:15:54;101526.38;;;6.67;78.14
39405;BME280;25121;51.090;17.038;2023-02-12T00:17:16;101523.78;;;6.65;77.99
39405;BME280;25121;51.090;17.038;2023-02-12T00:18:39;101529.03;;;6.67;77.97
39405;BME280;25121;51.090;17.038;2023-02-12T00:20:01;101533.19;;;6.71;78.01
39405;BME280;25121;51.090;17.038;2023-02-12T00:21:24;101520.03;;;6.68;77.89
39405;BME280;25121;51.090;17.038;2023-02-12T00:22:45;101530.72;;;6.68;78.19
39405;BME280;25121;51.090;17.038;2023-02-12T00:24:11;101534.38;;;6.67;77.71
39405;BME280;25121;51.090;17.038;2023-02-12T00:25:33;101528.06;;;6.68;77.98
39405;BME280;25121;51.090;17.038;2023-02-12T00:26:57;101528.06;;;6.68;77.95
39405;BME280;25121;51.090;17.038;2023-02-12T00:28:20;101532.31;;;6.71;77.99
39405;BME280;25121;51.090;17.038;2023-02-12T00:29:42;101540.56;;;6.67;77.90
39405;BME280;25121;51.090;17.038;2023-02-12T00:31:06;101544.09;;;6.68;77.91
39405;BME280;25121;51.090;17.038;2023-02-12T00:32:28;101530.97;;;6.65;78.03
39405;BME280;25121;51.090;17.038;2023-02-12T00:33:51;101547.72;;;6.67;78.06
39405;BME280;25121;51.090;17.038;2023-02-12T00:35:23;101540.91;;;6.63;78.03
39405;BME280;25121;51.090;17.038;2023-02-12T00:36:45;101541.41;;;6.68;78.07
39405;BME280;25121;51.090;17.038;2023-02-12T00:38:07;101551.16;;;6.69;77.98
39405;BME280;25121;51.090;17.038;2023-02-12T00:39:33;101545.66;;;6.71;77.93
39405;BME280;25121;51.090;17.038;2023-02-12T00:40:57;101549.22;;;6.71;78.03
39405;BME280;25121;51.090;17.038;2023-02-12T00:42:18;101544.72;;;6.72;77.99
39405;BME280;25121;51.090;17.038;2023-02-12T00:43:41;101543.88;;;6.71;78.08
39405;BME280;25121;51.090;17.038;2023-02-12T00:45:05;101548.25;;;6.72;78.13
39405;BME280;25121;51.090;17.038;2023-02-12T00:46:28;101543.88;;;6.71;78.20
39405;BME280;25121;51.090;17.038;2023-02-12T00:47:53;101548.13;;;6.74;78.09
39405;BME280;25121;51.090;17.038;2023-02-12T00:49:14;101532.56;;;6.67;78.03
39405;BME280;25121;51.090;17.038;2023-02-12T00:50:39;101544.72;;;6.72;78.04
39405;BME280;25121;51.090;17.038;2023-02-12T00:52:04;101539.47;;;6.70;78.03
39405;BME280;25121;51.090;17.038;2023-02-12T00:53:27;101544.97;;;6.68;78.14
39405;BME280;25121;51.090;17.038;2023-02-12T00:54:48;101542.06;;;6.72;78.15
39405;BME280;25121;51.090;17.038;2023-02-12T00:56:19;101541.06;;;6.73;77.90
39405;BME280;25121;51.090;17.038;2023-02-12T00:57:41;101551.66;;;6.74;78.13
39405;BME280;25121;51.090;17.038;2023-02-12T00:59:04;101551.66;;;6.74;78.02
39405;BME280;25121;51.090;17.038;2023-02-12T01:00:27;101539.63;;;6.68;77.85
39405;BME280;25121;51.090;17.038;2023-02-12T01:01:53;101553.47;;;6.74;78.15
39405;BME280;25121;51.090;17.038;2023-02-12T01:03:16;101548.97;;;6.74;77.88
39405;BME280;25121;51.090;17.038;2023-02-12T01:04:38;101549.94;;;6.73;77.87
39405;BME280;25121;51.090;17.038;2023-02-12T01:06:03;101555.28;;;6.73;77.88
39405;BME280;25121;51.090;17.038;2023-02-12T01:07:31;101556.25;;;6.72;77.84
39405;BME280;25121;51.090;17.038;2023-02-12T01:08:52;101557.94;;;6.73;77.93
39405;BME280;25121;51.090;17.038;2023-02-12T01:10:15;101569.63;;;6.72;78.04
39405;BME280;25121;51.090;17.038;2023-02-12T01:11:43;101558.94;;;6.72;77.93
39405;BME280;25121;51.090;17.038;2023-02-12T01:13:05;101556.34;;;6.71;77.64
39405;BME280;25121;51.090;17.038;2023-02-12T01:14:28;101558.09;;;6.72;77.90
39405;BME280;25121;51.090;17.038;2023-02-12T01:16:05;101556.59;;;6.67;77.90
39405;BME280;25121;51.090;17.038;2023-02-12T01:17:30;101557.56;;;6.66;77.98
39405;BME280;25121;51.090;17.038;2023-02-12T01:18:54;101569.38;;;6.75;77.60
39405;BME280;25121;51.090;17.038;2023-02-12T01:20:18;101573.03;;;6.74;77.90
39405;BME280;25121;51.090;17.038;2023-02-12T01:21:45;101573.03;;;6.74;77.90
39405;BME280;25121;51.090;17.038;2023-02-12T01:23:10;101558.19;;;6.70;77.88
39405;BME280;25121;51.090;17.038;2023-02-12T01:24:33;101566.72;;;6.75;78.03
39405;BME280;25121;51.090;17.038;2023-02-12T01:25:57;101568.88;;;6.70;77.85
39405;BME280;25121;51.090;17.038;2023-02-12T01:27:22;101562.78;;;6.68;77.79
39405;BME280;25121;51.090;17.038;2023-02-12T01:28:48;101571.19;;;6.75;77.86
39405;BME280;25121;51.090;17.038;2023-02-12T01:30:15;101572.91;;;6.76;77.76
39405;BME280;25121;51.090;17.038;2023-02-12T01:31:45;101572.38;;;6.71;77.77
39405;BME280;25121;51.090;17.038;2023-02-12T01:33:08;101565.44;;;6.68;77.77
39405;BME280;25121;51.090;17.038;2023-02-12T01:34:30;101573.25;;;6.71;77.83
39405;BME280;25121;51.090;17.038;2023-02-12T01:35:53;101568.88;;;6.70;77.75
39405;BME280;25121;51.090;17.038;2023-02-12T01:37:15;101572.38;;;6.71;78.01
39405;BME280;25121;51.090;17.038;2023-02-12T01:38:38;101569.09;;;6.67;77.93
39405;BME280;25121;51.090;17.038;2023-02-12T01:40:01;101569.22;;;6.65;77.88
39405;BME280;25121;51.090;17.038;2023-02-12T01:41:33;101584.91;;;6.70;77.84
39405;BME280;25121;51.090;17.038;2023-02-12T01:42:59;101590.38;;;6.68;77.87
39405;BME280;25121;51.090;17.038;2023-02-12T01:44:27;101600.94;;;6.70;77.82
39405;BME280;25121;51.090;17.038;2023-02-12T01:45:51;101600.09;;;6.69;77.96
39405;BME280;25121;51.090;17.038;2023-02-12T01:47:17;101602.34;;;6.63;78.06
39405;BME280;25121;51.090;17.038;2023-02-12T01:48:45;101611.63;;;6.70;77.91
39405;BME280;25121;51.090;17.038;2023-02-12T01:50:11;101619.53;;;6.72;78.08
39405;BME280;25121;51.090;17.038;2023-02-12T01:51:34;101608.94;;;6.70;78.06
39405;BME280;25121;51.090;17.038;2023-02-12T01:53:00;101611.94;;;6.65;78.01
39405;BME280;25121;51.090;17.038;2023-02-12T01:54:25;101611.94;;;6.65;77.75
39405;BME280;25121;51.090;17.038;2023-02-12T01:55:50;101622.94;;;6.74;77.75
39405;BME280;25121;51.090;17.038;2023-02-12T01:57:17;101611.84;;;6.67;77.91
39405;BME280;25121;51.090;17.038;2023-02-12T01:58:42;101627.41;;;6.73;77.95
39405;BME280;25121;51.090;17.038;2023-02-12T02:00:09;101617.59;;;6.74;77.87
39405;BME280;25121;51.090;17.038;2023-02-12T02:01:35;101628.16;;;6.75;77.90
39405;BME280;25121;51.090;17.038;2023-02-12T02:03:01;101624.88;;;6.72;77.94
39405;BME280;25121;51.090;17.038;2023-02-12T02:04:29;101624.53;;;6.76;77.71
39405;BME280;25121;51.090;17.038;2023-02-12T02:05:55;101609.69;;;6.72;77.89
39405;BME280;25121;51.090;17.038;2023-02-12T02:07:19;101621.34;;;6.71;77.44
39405;BME280;25121;51.090;17.038;2023-02-12T02:08:41;101621.13;;;6.74;77.61
39405;BME280;25121;51.090;17.038;2023-02-12T02:10:07;101613.94;;;6.75;77.46
39405;BME280;25121;51.090;17.038;2023-02-12T02:11:29;101620.13;;;6.75;77.56
39405;BME280;25121;51.090;17.038;2023-02-12T02:13:09;101620.28;;;6.74;77.43
39405;BME280;25121;51.090;17.038;2023-02-12T02:14:50;101625.50;;;6.75;77.64
39405;BME280;25121;51.090;17.038;2023-02-12T02:16:17;101621.97;;;6.75;77.62
39405;BME280;25121;51.090;17.038;2023-02-12T02:17:46;101612.59;;;6.69;77.57
39405;BME280;25121;51.090;17.038;2023-02-12T02:19:29;101624.53;;;6.76;77.85
39405;BME280;25121;51.090;17.038;2023-02-12T02:22:51;101622.94;;;6.74;77.77
39405;BME280;25121;51.090;17.038;2023-02-12T02:26:42;101624.75;;;6.73;77.74
39405;BME280;25121;51.090;17.038;2023-02-12T02:28:30;101625.63;;;6.74;77.95
39405;BME280;25121;51.090;17.038;2023-02-12T02:30:34;101627.41;;;6.73;77.82
39405;BME280;25121;51.090;17.038;2023-02-12T02:32:07;101632.75;;;6.73;77.82
39405;BME280;25121;51.090;17.038;2023-02-12T02:33:40;101631.06;;;6.72;77.85
39405;BME280;25121;51.090;17.038;2023-02-12T02:35:08;101637.16;;;6.74;77.85
39405;BME280;25121;51.090;17.038;2023-02-12T02:36:39;101631.91;;;6.73;77.94
39405;BME280;25121;51.090;17.038;2023-02-12T02:38:24;101630.09;;;6.73;77.86
39405;BME280;25121;51.090;17.038;2023-02-12T02:39:54;101639.69;;;6.76;77.86
39405;BME280;25121;51.090;17.038;2023-02-12T02:41:24;101633.72;;;6.72;77.74
39405;BME280;25121;51.090;17.038;2023-02-12T02:42:53;101647.59;;;6.77;77.74
39405;BME280;25121;51.090;17.038;2023-02-12T02:44:22;101636.31;;;6.74;77.81
39405;BME280;25121;51.090;17.038;2023-02-12T02:45:48;101652.00;;;6.78;77.78
39405;BME280;25121;51.090;17.038;2023-02-12T02:47:13;101654.69;;;6.78;77.82
39405;BME280;25121;51.090;17.038;2023-02-12T02:48:40;101644.94;;;6.77;78.00
39405;BME280;25121;51.090;17.038;2023-02-12T02:50:07;101653.94;;;6.76;77.97
39405;BME280;25121;51.090;17.038;2023-02-12T02:51:33;101657.13;;;6.81;77.97
39405;BME280;25121;51.090;17.038;2023-02-12T02:53:00;101650.38;;;6.76;77.96
39405;BME280;25121;51.090;17.038;2023-02-12T02:54:28;101656.13;;;6.82;78.04
39405;BME280;25121;51.090;17.038;2023-02-12T02:55:55;101654.44;;;6.81;78.04
39405;BME280;25121;51.090;17.038;2023-02-12T02:57:24;101665.75;;;6.85;77.87
39405;BME280;25121;51.090;17.038;2023-02-12T02:58:52;101660.41;;;6.85;77.90
39405;BME280;25121;51.090;17.038;2023-02-12T03:00:18;101669.16;;;6.87;77.92
39405;BME280;25121;51.090;17.038;2023-02-12T03:01:46;101668.19;;;6.88;77.93
39405;BME280;25121;51.090;17.038;2023-02-12T03:03:19;101662.97;;;6.86;77.86
39405;BME280;25121;51.090;17.038;2023-02-12T03:04:47;101663.72;;;6.88;77.79
39405;BME280;25121;51.090;17.038;2023-02-12T03:06:16;101663.81;;;6.87;77.59
39405;BME280;25121;51.090;17.038;2023-02-12T03:07:42;101667.09;;;6.90;77.85
39405;BME280;25121;51.090;17.038;2023-02-12T03:09:14;101671.75;;;6.88;77.77
39405;BME280;25121;51.090;17.038;2023-02-12T03:10:43;101664.66;;;6.87;77.85
39405;BME280;25121;51.090;17.038;2023-02-12T03:12:09;101664.56;;;6.89;77.71
39405;BME280;25121;51.090;17.038;2023-02-12T03:13:37;101672.34;;;6.92;77.79
39405;BME280;25121;51.090;17.038;2023-02-12T03:15:02;101668.81;;;6.92;77.76
39405;BME280;25121;51.090;17.038;2023-02-12T03:16:28;101673.31;;;6.91;77.76
39405;BME280;25121;51.090;17.038;2023-02-12T03:17:57;101686.47;;;6.94;77.69
39405;BME280;25121;51.090;17.038;2023-02-12T03:19:31;101692.66;;;6.95;77.80
39405;BME280;25121;51.090;17.038;2023-02-12T03:21:00;101682.94;;;6.94;77.78
39405;BME280;25121;51.090;17.038;2023-02-12T03:22:25;101672.69;;;6.87;77.79
39405;BME280;25121;51.090;17.038;2023-02-12T03:23:53;101689.03;;;6.96;77.67
39405;BME280;25121;51.090;17.038;2023-02-12T03:25:19;101684.72;;;6.93;77.59
39405;BME280;25121;51.090;17.038;2023-02-12T03:26:49;101685.38;;;6.97;77.82
39405;BME280;25121;51.090;17.038;2023-02-12T03:28:17;101692.53;;;6.96;77.53
39405;BME280;25121;51.090;17.038;2023-02-12T03:29:45;101688.38;;;6.92;77.61
39405;BME280;25121;51.090;17.038;2023-02-12T03:31:14;101688.91;;;6.97;77.49
39405;BME280;25121;51.090;17.038;2023-02-12T03:32:45;101696.06;;;6.97;77.57
39405;BME280;25121;51.090;17.038;2023-02-12T03:34:17;101699.72;;;6.96;77.50
39405;BME280;25121;51.090;17.038;2023-02-12T03:35:50;101703.34;;;6.95;77.50
39405;BME280;25121;51.090;17.038;2023-02-12T03:37:20;101701.75;;;6.92;77.44
39405;BME280;25121;51.090;17.038;2023-02-12T03:38:45;101712.09;;;6.97;77.44
39405;BME280;25121;51.090;17.038;2023-02-12T03:40:17;101702.72;;;6.91;77.37
39405;BME280;25121;51.090;17.038;2023-02-12T03:41:46;101704.41;;;6.92;77.48
39405;BME280;25121;51.090;17.038;2023-02-12T03:43:20;101706.25;;;6.92;77.69
39405;BME280;25121;51.090;17.038;2023-02-12T03:44:52;101711.25;;;6.96;77.67
39405;BME280;25121;51.090;17.038;2023-02-12T03:46:21;101718.28;;;6.97;77.43
39405;BME280;25121;51.090;17.038;2023-02-12T03:47:51;101726.31;;;6.97;77.34
39405;BME280;25121;51.090;17.038;2023-02-12T03:49:25;101729.00;;;6.97;77.42
39405;BME280;25121;51.090;17.038;2023-02-12T03:50:53;101727.28;;;6.96;77.32
39405;BME280;25121;51.090;17.038;2023-02-12T03:52:18;101724.94;;;6.92;77.40
39405;BME280;25121;51.090;17.038;2023-02-12T03:53:42;101729.31;;;6.93;77.20
39405;BME280;25121;51.090;17.038;2023-02-12T03:55:05;101733.59;;;6.95;77.05
39405;BME280;25121;51.090;17.038;2023-02-12T03:56:34;101724.94;;;6.92;77.14
39405;BME280;25121;51.090;17.038;2023-02-12T03:58:02;101723.34;;;6.89;77.14
39405;BME280;25121;51.090;17.038;2023-02-12T03:59:34;101721.75;;;6.86;77.04
39405;BME280;25121;51.090;17.038;2023-02-12T04:01:02;101730.41;;;6.90;77.19
39405;BME280;25121;51.090;17.038;2023-02-12T04:02:25;101734.66;;;6.93;77.22
39405;BME280;25121;51.090;17.038;2023-02-12T04:03:52;101741.00;;;6.92;77.05
39405;BME280;25121;51.090;17.038;2023-02-12T04:05:23;101733.19;;;6.88;77.01
39405;BME280;25121;51.090;17.038;2023-02-12T04:06:48;101742.69;;;6.93;77.05
39405;BME280;25121;51.090;17.038;2023-02-12T04:08:11;101748.88;;;6.93;77.10
39405;BME280;25121;51.090;17.038;2023-02-12T04:09:34;101753.38;;;6.93;77.19
39405;BME280;25121;51.090;17.038;2023-02-12T04:11:02;101752.53;;;6.92;77.33
39405;BME280;25121;51.090;17.038;2023-02-12T04:12:39;101745.59;;;6.89;77.37
39405;BME280;25121;51.090;17.038;2023-02-12T04:14:14;101744.00;;;6.87;77.13
39405;BME280;25121;51.090;17.038;2023-02-12T04:15:50;101749.94;;;6.90;77.01
39405;BME280;25121;51.090;17.038;2023-02-12T04:17:23;101756.19;;;6.91;77.14
39405;BME280;25121;51.090;17.038;2023-02-12T04:18:49;101757.88;;;6.92;77.19
39405;BME280;25121;51.090;17.038;2023-02-12T04:20:20;101751.91;;;6.88;76.96
39405;BME280;25121;51.090;17.038;2023-02-12T04:21:55;101759.78;;;6.90;77.15
39405;BME280;25121;51.090;17.038;2023-02-12T04:23:41;101754.06;;;6.83;77.21
39405;BME280;25121;51.090;17.038;2023-02-12T04:25:14;101755.53;;;6.87;77.22
39405;BME280;25121;51.090;17.038;2023-02-12T04:26:51;101760.88;;;6.87;77.06
39405;BME280;25121;51.090;17.038;2023-02-12T04:28:25;101752.22;;;6.84;77.24
39405;BME280;25121;51.090;17.038;2023-02-12T04:29:51;101757.97;;;6.90;77.20
39405;BME280;25121;51.090;17.038;2023-02-12T04:31:21;101769.63;;;6.89;77.07
39405;BME280;25121;51.090;17.038;2023-02-12T04:32:49;101765.13;;;6.90;77.17
39405;BME280;25121;51.090;17.038;2023-02-12T04:34:17;101770.47;;;6.90;77.10
39405;BME280;25121;51.090;17.038;2023-02-12T04:35:47;101770.63;;;6.88;77.01
39405;BME280;25121;51.090;17.038;2023-02-12T04:37:17;101768.88;;;6.87;77.18
39405;BME280;25121;51.090;17.038;2023-02-12T04:38:43;101772.22;;;6.91;77.03
39405;BME280;25121;51.090;17.038;2023-02-12T04:40:11;101779.25;;;6.92;77.28
39405;BME280;25121;51.090;17.038;2023-02-12T04:41:35;101783.75;;;6.92;77.24
39405;BME280;25121;51.090;17.038;2023-02-12T04:42:59;101782.78;;;6.93;77.09
39405;BME280;25121;51.090;17.038;2023-02-12T04:44:28;101778.50;;;6.90;77.01
39405;BME280;25121;51.090;17.038;2023-02-12T04:45:49;101784.50;;;6.94;76.98
39405;BME280;25121;51.090;17.038;2023-02-12T04:47:14;101792.38;;;6.95;77.07
39405;BME280;25121;51.090;17.038;2023-02-12T04:48:49;101783.53;;;6.95;77.10
39405;BME280;25121;51.090;17.038;2023-02-12T04:50:13;101784.50;;;6.94;76.94
39405;BME280;25121;51.090;17.038;2023-02-12T04:51:38;101789.72;;;6.95;77.01
39405;BME280;25121;51.090;17.038;2023-02-12T04:53:06;101794.97;;;6.97;77.03
39405;BME280;25121;51.090;17.038;2023-02-12T04:54:29;101797.63;;;6.97;77.03
39405;BME280;25121;51.090;17.038;2023-02-12T04:55:53;101791.63;;;6.93;76.92
39405;BME280;25121;51.090;17.038;2023-02-12T04:57:16;101794.13;;;6.96;76.92
39405;BME280;25121;51.090;17.038;2023-02-12T04:58:41;101796.78;;;6.96;76.92
39405;BME280;25121;51.090;17.038;2023-02-12T05:00:05;101789.72;;;6.95;77.16
39405;BME280;25121;51.090;17.038;2023-02-12T05:01:33;101788.88;;;6.95;77.14
39405;BME280;25121;51.090;17.038;2023-02-12T05:02:55;101799.22;;;6.99;76.94
39405;BME280;25121;51.090;17.038;2023-02-12T05:04:29;101805.66;;;6.97;76.85
39405;BME280;25121;51.090;17.038;2023-02-12T05:05:52;101806.41;;;6.99;76.84
39405;BME280;25121;51.090;17.038;2023-02-12T05:07:19;101803.59;;;7.00;76.89
39405;BME280;25121;51.090;17.038;2023-02-12T05:08:48;101808.94;;;7.00;76.88
39405;BME280;25121;51.090;17.038;2023-02-12T05:10:10;101805.31;;;7.01;76.90
39405;BME280;25121;51.090;17.038;2023-02-12T05:11:32;101808.09;;;7.00;76.93
39405;BME280;25121;51.090;17.038;2023-02-12T05:12:54;101807.25;;;6.99;76.63
39405;BME280;25121;51.090;17.038;2023-02-12T05:14:21;101816.88;;;7.02;76.79
39405;BME280;25121;51.090;17.038;2023-02-12T05:15:45;101808.09;;;7.00;76.92
39405;BME280;25121;51.090;17.038;2023-02-12T05:17:06;101811.63;;;7.00;76.82
39405;BME280;25121;51.090;17.038;2023-02-12T05:18:32;101812.59;;;6.99;76.77
39405;BME280;25121;51.090;17.038;2023-02-12T05:19:52;101818.03;;;6.98;76.92
39405;BME280;25121;51.090;17.038;2023-02-12T05:21:15;101806.72;;;6.94;76.54
39405;BME280;25121;51.090;17.038;2023-02-12T05:22:37;101812.69;;;6.98;76.78
39405;BME280;25121;51.090;17.038;2023-02-12T05:24:02;101810.16;;;6.96;76.79
39405;BME280;25121;51.090;17.038;2023-02-12T05:25:23;101817.09;;;6.99;76.78
39405;BME280;25121;51.090;17.038;2023-02-12T05:26:49;101818.91;;;6.98;76.89
39405;BME280;25121;51.090;17.038;2023-02-12T05:28:11;101819.75;;;6.99;76.83
39405;BME280;25121;51.090;17.038;2023-02-12T05:29:35;101814.75;;;6.94;76.93
39405;BME280;25121;51.090;17.038;2023-02-12T05:31:00;101828.53;;;7.01;76.92
39405;BME280;25121;51.090;17.038;2023-02-12T05:32:22;101824.13;;;7.00;76.86
39405;BME280;25121;51.090;17.038;2023-02-12T05:33:48;101826.81;;;7.00;76.89
39405;BME280;25121;51.090;17.038;2023-02-12T05:35:13;101833.00;;;7.00;76.75
39405;BME280;25121;51.090;17.038;2023-02-12T05:36:35;101841.03;;;7.00;76.74
39405;BME280;25121;51.090;17.038;2023-02-12T05:37:57;101827.13;;;6.95;76.54
39405;BME280;25121;51.090;17.038;2023-02-12T05:39:22;101828.72;;;6.98;76.51
39405;BME280;25121;51.090;17.038;2023-02-12T05:40:47;101841.91;;;7.01;76.76
39405;BME280;25121;51.090;17.038;2023-02-12T05:42:12;101836.56;;;7.01;76.76
39405;BME280;25121;51.090;17.038;2023-02-12T05:43:35;101840.91;;;7.02;76.67
39405;BME280;25121;51.090;17.038;2023-02-12T05:44:56;101836.56;;;7.01;76.64
39405;BME280;25121;51.090;17.038;2023-02-12T05:46:20;101830.31;;;7.00;76.74
39405;BME280;25121;51.090;17.038;2023-02-12T05:47:42;101835.81;;;6.99;76.58
39405;BME280;25121;51.090;17.038;2023-02-12T05:49:05;101837.28;;;7.03;76.63
39405;BME280;25121;51.090;17.038;2023-02-12T05:50:27;101842.97;;;6.98;76.73
39405;BME280;25121;51.090;17.038;2023-02-12T05:51:52;101832.91;;;7.02;76.62
39405;BME280;25121;51.090;17.038;2023-02-12T05:53:15;101849.78;;;7.02;76.53
39405;BME280;25121;51.090;17.038;2023-02-12T05:54:37;101855.13;;;7.02;76.54
39405;BME280;25121;51.090;17.038;2023-02-12T05:56:08;101859.63;;;7.02;76.56
39405;BME280;25121;51.090;17.038;2023-02-12T05:57:32;101854.38;;;7.00;76.69
39405;BME280;25121;51.090;17.038;2023-02-12T05:58:56;101864.97;;;7.02;76.46
39405;BME280;25121;51.090;17.038;2023-02-12T06:00:29;101864.97;;;7.02;76.56
39405;BME280;25121;51.090;17.038;2023-02-12T06:01:57;101862.31;;;7.02;76.59
39405;BME280;25121;51.090;17.038;2023-02-12T06:03:23;101863.16;;;7.02;76.62
39405;BME280;25121;51.090;17.038;2023-02-12T06:04:45;101870.31;;;7.02;76.65
39405;BME280;25121;51.090;17.038;2023-02-12T06:06:08;101869.69;;;6.98;76.48
39405;BME280;25121;51.090;17.038;2023-02-12T06:07:30;101880.16;;;7.01;76.60
39405;BME280;25121;51.090;17.038;2023-02-12T06:08:53;101888.19;;;7.01;76.26
39405;BME280;25121;51.090;17.038;2023-02-12T06:10:23;101887.22;;;7.02;76.52
39405;BME280;25121;51.090;17.038;2023-02-12T06:11:46;101873.22;;;6.99;76.44
39405;BME280;25121;51.090;17.038;2023-02-12T06:13:20;101878.78;;;6.96;76.44
39405;BME280;25121;51.090;17.038;2023-02-12T06:14:42;101893.53;;;7.01;76.26
39405;BME280;25121;51.090;17.038;2023-02-12T06:16:04;101900.81;;;6.99;76.52
39405;BME280;25121;51.090;17.038;2023-02-12T06:17:25;101900.72;;;7.01;76.14
39405;BME280;25121;51.090;17.038;2023-02-12T06:18:49;101886.16;;;6.92;76.33
39405;BME280;25121;51.090;17.038;2023-02-12T06:20:11;101900.81;;;6.99;76.43
39405;BME280;25121;51.090;17.038;2023-02-12T06:21:34;101909.66;;;7.00;76.30
39405;BME280;25121;51.090;17.038;2023-02-12T06:22:56;101907.13;;;6.98;76.32
39405;BME280;25121;51.090;17.038;2023-02-12T06:24:19;101923.88;;;7.00;76.38
39405;BME280;25121;51.090;17.038;2023-02-12T06:25:43;101918.66;;;6.99;76.13
39405;BME280;25121;51.090;17.038;2023-02-12T06:27:07;101918.75;;;6.97;76.47
39405;BME280;25121;51.090;17.038;2023-02-12T06:28:31;101910.97;;;6.94;76.33
39405;BME280;25121;51.090;17.038;2023-02-12T06:29:53;101916.94;;;6.98;76.27
39405;BME280;25121;51.090;17.038;2023-02-12T06:31:22;101922.09;;;7.01;76.27
39405;BME280;25121;51.090;17.038;2023-02-12T06:32:48;101924.63;;;7.02;76.24
39405;BME280;25121;51.090;17.038;2023-02-12T06:34:12;101913.31;;;6.99;76.40
39405;BME280;25121;51.090;17.038;2023-02-12T06:35:39;101927.00;;;7.07;76.07
39405;BME280;25121;51.090;17.038;2023-02-12T06:37:02;101922.09;;;7.01;76.07
39405;BME280;25121;51.090;17.038;2023-02-12T06:38:33;101937.91;;;7.04;76.25
39405;BME280;25121;51.090;17.038;2023-02-12T06:39:55;101943.03;;;7.07;76.01
39405;BME280;25121;51.090;17.038;2023-02-12T06:41:21;101945.72;;;7.07;75.95
39405;BME280;25121;51.090;17.038;2023-02-12T06:42:44;101945.19;;;7.02;75.90
39405;BME280;25121;51.090;17.038;2023-02-12T06:44:06;101951.81;;;7.09;75.94
39405;BME280;25121;51.090;17.038;2023-02-12T06:45:28;101950.06;;;7.08;75.62
39405;BME280;25121;51.090;17.038;2023-02-12T06:46:51;101951.16;;;7.05;75.71
39405;BME280;25121;51.090;17.038;2023-02-12T06:48:14;101958.75;;;7.11;75.78
39405;BME280;25121;51.090;17.038;2023-02-12T06:49:37;101944.00;;;7.06;75.83
39405;BME280;25121;51.090;17.038;2023-02-12T06:51:08;101957.69;;;7.14;75.69
39405;BME280;25121;51.090;17.038;2023-02-12T06:52:32;101955.75;;;7.16;75.57
39405;BME280;25121;51.090;17.038;2023-02-12T06:53:54;101959.28;;;7.17;75.56
39405;BME280;25121;51.090;17.038;2023-02-12T06:55:17;101955.84;;;7.15;75.39
39405;BME280;25121;51.090;17.038;2023-02-12T06:56:43;101954.69;;;7.19;75.44
39405;BME280;25121;51.090;17.038;2023-02-12T06:58:08;101964.41;;;7.20;75.34
39405;BME280;25121;51.090;17.038;2023-02-12T06:59:32;101967.00;;;7.21;75.42
39405;BME280;25121;51.090;17.038;2023-02-12T07:00:58;101959.19;;;7.18;75.24
39405;BME280;25121;51.090;17.038;2023-02-12T07:02:37;101957.38;;;7.19;75.22
39405;BME280;25121;51.090;17.038;2023-02-12T07:04:01;101966.88;;;7.23;75.10
39405;BME280;25121;51.090;17.038;2023-02-12T07:05:34;101958.97;;;7.21;74.89
39405;BME280;25121;51.090;17.038;2023-02-12T07:07:37;101952.88;;;7.19;74.95
39405;BME280;25121;51.090;17.038;2023-02-12T07:09:09;101967.63;;;7.25;74.93
39405;BME280;25121;51.090;17.038;2023-02-12T07:10:48;101961.19;;;7.27;74.84
39405;BME280;25121;51.090;17.038;2023-02-12T07:12:25;101970.63;;;7.33;74.69
39405;BME280;25121;51.090;17.038;2023-02-12T07:13:52;101973.69;;;7.40;74.55
39405;BME280;25121;51.090;17.038;2023-02-12T07:15:27;101978.72;;;7.44;74.50
39405;BME280;25121;51.090;17.038;2023-02-12T07:16:59;101981.41;;;7.44;74.48
39405;BME280;25121;51.090;17.038;2023-02-12T07:18:37;101985.91;;;7.44;74.49
39405;BME280;25121;51.090;17.038;2023-02-12T07:20:01;101993.72;;;7.47;74.21
39405;BME280;25121;51.090;17.038;2023-02-12T07:21:32;101992.00;;;7.46;74.41
39405;BME280;25121;51.090;17.038;2023-02-12T07:22:59;101993.59;;;7.48;74.36
39405;BME280;25121;51.090;17.038;2023-02-12T07:24:33;101992.63;;;7.49;74.31
39405;BME280;25121;51.090;17.038;2023-02-12T07:26:53;101990.72;;;7.51;74.20
39405;BME280;25121;51.090;17.038;2023-02-12T07:28:27;102000.34;;;7.54;73.93
39405;BME280;25121;51.090;17.038;2023-02-12T07:30:10;102005.47;;;7.57;73.97
39405;BME280;25121;51.090;17.038;2023-02-12T07:31:47;101991.34;;;7.55;73.94
39405;BME280;25121;51.090;17.038;2023-02-12T07:33:20;102002.38;;;7.63;73.89
39405;BME280;25121;51.090;17.038;2023-02-12T07:34:46;101994.34;;;7.63;73.72
39405;BME280;25121;51.090;17.038;2023-02-12T07:36:14;102000.97;;;7.70;73.73
39405;BME280;25121;51.090;17.038;2023-02-12T07:37:38;101989.59;;;7.67;73.43
39405;BME280;25121;51.090;17.038;2023-02-12T07:39:22;101999.66;;;7.76;73.43
39405;BME280;25121;51.090;17.038;2023-02-12T07:40:53;102002.22;;;7.77;73.39